Time;durP1;ratioP1;P1;durP2;ratioP2;P2;SDS_P1;SDS_P2;PMS_P1;PMS_P2;Temp;Humidity;BMP_temperature;BMP_pressure;BME280_temperature;BME280_humidity;BME280_pressure;Samples;Min_cycle;Max_cycle;Signal;HPM_P1;HPM_P2
2022/12/31 00:02:22;;;;;;;21.70;10.95;;;;;;;4.41;70.40;99423.97;4899189;29;20585;-76
2022/12/31 00:04:47;;;;;;;25.45;11.20;;;;;;;4.35;70.17;99409.34;4898543;29;20040;-76
2022/12/31 00:07:13;;;;;;;23.05;11.40;;;;;;;4.31;70.14;99411.84;4916643;29;20048;-76
2022/12/31 00:09:39;;;;;;;24.92;11.32;;;;;;;4.38;70.66;99411.06;4917169;29;20482;-76
2022/12/31 00:12:05;;;;;;;23.35;10.65;;;;;;;4.52;70.17;99426.66;4934673;29;20103;-76
2022/12/31 00:14:31;;;;;;;22.55;10.90;;;;;;;4.27;70.47;99384.34;4934710;29;20126;-77
2022/12/31 00:16:57;;;;;;;22.45;10.55;;;;;;;4.31;70.28;99391.22;4901558;29;20142;-77
2022/12/31 00:19:23;;;;;;;22.48;10.73;;;;;;;4.38;69.96;99393.03;4934342;29;20059;-76
2022/12/31 00:21:49;;;;;;;22.90;10.70;;;;;;;4.47;70.26;99398.28;4917125;29;20051;-75
2022/12/31 00:24:15;;;;;;;23.52;10.77;;;;;;;4.49;69.91;99406.91;4934193;29;20048;-76
2022/12/31 00:26:41;;;;;;;25.75;11.77;;;;;;;4.54;70.09;99412.09;4901913;29;20062;-75
2022/12/31 00:29:09;;;;;;;23.05;10.82;;;;;;;4.39;70.21;99389.59;4917544;29;20187;-76
2022/12/31 00:31:37;;;;;;;20.08;9.52;;;;;;;4.49;70.04;99413.75;4917854;29;20083;-77
2022/12/31 00:34:05;;;;;;;25.42;11.13;;;;;;;4.20;69.88;99376.53;4902825;29;20043;-78
2022/12/31 00:36:34;;;;;;;20.17;9.77;;;;;;;4.29;69.81;99390.38;4934781;29;20039;-76
2022/12/31 00:39:03;;;;;;;21.60;10.15;;;;;;;4.32;69.77;99398.13;4934249;29;20062;-76
2022/12/31 00:41:30;;;;;;;20.80;10.15;;;;;;;4.16;69.18;99387.66;4901744;29;20078;-76
2022/12/31 00:43:56;;;;;;;24.92;10.85;;;;;;;4.29;69.62;99408.41;4917251;29;20541;-76
2022/12/31 00:46:23;;;;;;;20.90;10.27;;;;;;;4.31;70.45;99409.25;4934235;29;20095;-76
2022/12/31 00:48:49;;;;;;;22.35;10.40;;;;;;;4.04;69.54;99400.41;4917344;29;20031;-76
2022/12/31 00:51:19;;;;;;;18.63;9.80;;;;;;;4.11;70.08;99409.06;4944347;29;20071;-76
2022/12/31 00:53:45;;;;;;;21.45;9.70;;;;;;;4.07;69.47;99410.75;4938534;29;20109;-76
2022/12/31 00:56:14;;;;;;;17.40;8.75;;;;;;;4.12;70.57;99398.78;4937701;29;20524;-77
2022/12/31 00:58:41;;;;;;;18.45;8.88;;;;;;;3.90;69.61;99365.06;4920645;29;20040;-75
2022/12/31 01:01:12;;;;;;;21.48;9.40;;;;;;;4.05;69.65;99405.56;4920302;29;20044;-75
2022/12/31 01:03:38;;;;;;;21.38;10.23;;;;;;;3.86;69.00;99388.19;4937714;29;20175;-77
2022/12/31 01:06:05;;;;;;;19.33;9.30;;;;;;;3.70;70.14;99388.00;4920995;29;20043;-76
2022/12/31 01:08:31;;;;;;;17.77;9.95;;;;;;;3.85;69.34;99409.63;4927562;29;20528;-76
2022/12/31 01:13:42;;;;;;;18.50;10.00;;;;;;;3.71;69.94;99409.44;4917971;29;20050;-76
2022/12/31 01:16:09;;;;;;;19.70;9.18;;;;;;;3.50;69.19;99384.31;4885988;29;20052;-75
2022/12/31 01:18:36;;;;;;;20.38;9.82;;;;;;;3.41;69.39;99385.06;4918403;29;20040;-76
2022/12/31 01:21:05;;;;;;;20.30;9.18;;;;;;;3.43;69.30;99406.50;4870664;29;20099;-76
2022/12/31 01:23:31;;;;;;;19.30;9.13;;;;;;;3.28;69.05;99396.88;4918415;29;20040;-76
2022/12/31 01:26:00;;;;;;;17.42;8.25;;;;;;;3.43;69.82;99409.06;4918166;29;20055;-76
2022/12/31 01:28:26;;;;;;;16.52;8.38;;;;;;;3.50;69.83;99416.03;4918107;29;20633;-76
2022/12/31 01:30:53;;;;;;;18.75;8.45;;;;;;;3.51;70.29;99412.63;4885996;29;20080;-77
2022/12/31 01:33:19;;;;;;;19.95;9.27;;;;;;;3.46;70.03;99397.13;4918542;29;20050;-77
2022/12/31 01:35:45;;;;;;;15.75;8.30;;;;;;;3.47;69.92;99379.97;4918061;29;20051;-77
2022/12/31 01:38:11;;;;;;;19.05;9.15;;;;;;;3.54;69.58;99401.50;4918440;29;20050;-76
2022/12/31 01:40:39;;;;;;;15.65;8.07;;;;;;;3.53;70.17;99408.38;4917985;29;20502;-75
2022/12/31 01:43:17;;;;;;;14.55;7.60;;;;;;;3.59;70.21;99403.31;4918316;29;20042;-76
2022/12/31 01:45:46;;;;;;;15.20;7.75;;;;;;;3.52;69.65;99398.06;4917818;29;20067;-76
2022/12/31 01:48:16;;;;;;;14.20;8.10;;;;;;;3.55;70.73;99398.97;4901109;29;20048;-76
2022/12/31 01:50:45;;;;;;;15.43;8.00;;;;;;;3.54;69.38;99394.66;4918032;29;20064;-76
2022/12/31 01:53:12;;;;;;;12.38;7.20;;;;;;;3.57;70.03;99397.28;4918406;29;20489;-76
2022/12/31 01:55:50;;;;;;;14.82;8.52;;;;;;;3.61;70.39;99398.16;4917760;29;20067;-76
2022/12/31 01:58:41;;;;;;;13.20;6.72;;;;;;;3.46;70.03;99373.97;4900826;29;20103;-75
2022/12/31 02:01:08;;;;;;;14.88;7.55;;;;;;;3.61;69.70;99399.06;4917039;29;20067;-76
2022/12/31 02:03:34;;;;;;;14.52;7.57;;;;;;;3.67;70.46;99389.66;4917865;29;20048;-76
2022/12/31 02:06:09;;;;;;;15.10;7.57;;;;;;;3.59;70.65;99366.41;4891717;29;20453;-76
2022/12/31 02:08:36;;;;;;;14.82;7.85;;;;;;;3.87;70.35;99398.47;4929867;29;20043;-77
2022/12/31 02:11:27;;;;;;;12.05;7.07;;;;;;;3.94;69.91;99390.84;4920742;29;20087;-76
2022/12/31 02:13:57;;;;;;;14.40;7.55;;;;;;;3.89;70.31;99371.06;4938386;29;20524;-76
2022/12/31 02:16:28;;;;;;;12.90;7.88;;;;;;;4.01;70.53;99387.50;4904210;29;20040;-76
2022/12/31 02:19:25;;;;;;;14.60;7.50;;;;;;;4.12;69.88;99396.19;4903874;29;20055;-77
2022/12/31 02:21:55;;;;;;;13.68;7.10;;;;;;;4.03;70.22;99383.22;4919856;29;20066;-76
2022/12/31 02:24:39;;;;;;;11.65;6.68;;;;;;;4.13;70.29;99397.91;4936900;29;20488;-76
2022/12/31 02:27:23;;;;;;;11.52;6.93;;;;;;;4.08;70.04;99394.47;4903681;29;20042;-77
2022/12/31 02:30:17;;;;;;;11.15;6.65;;;;;;;4.12;69.32;99393.63;4920893;29;20047;-75
2022/12/31 02:32:49;;;;;;;11.43;6.60;;;;;;;4.15;69.87;99391.09;4919319;29;20056;-76
2022/12/31 02:35:23;;;;;;;;;;;;;;;4.11;69.82;99383.31;4903810;29;20043;-76
2022/12/31 02:37:56;;;;;;;11.32;6.60;;;;;;;4.17;70.30;99389.38;4903572;29;19918;-75
2022/12/31 02:40:22;;;;;;;9.13;5.72;;;;;;;4.15;69.87;99380.78;4918910;29;20055;-75
2022/12/31 02:42:48;;;;;;;9.93;6.03;;;;;;;4.16;69.88;99374.78;4919203;29;20043;-75
2022/12/31 02:45:19;;;;;;;9.70;6.32;;;;;;;4.19;69.89;99377.41;4919161;29;20516;-75
2022/12/31 02:48:00;;;;;;;10.07;6.50;;;;;;;4.27;69.59;99389.50;4918984;29;20400;-76
2022/12/31 02:50:36;;;;;;;10.25;6.22;;;;;;;4.30;70.24;99389.53;4935387;29;20106;-75
2022/12/31 02:53:12;;;;;;;11.65;6.72;;;;;;;4.16;69.49;99371.34;4903022;29;20040;-75
2022/12/31 02:55:57;;;;;;;11.38;6.75;;;;;;;4.29;70.13;99398.09;4935705;29;20039;-75
2022/12/31 03:04:31;;;;;;;14.90;9.30;;;;;;;4.26;69.64;99390.34;4903023;29;20544;-75
2022/12/31 03:07:09;;;;;;;15.93;8.88;;;;;;;4.30;69.39;99399.84;4918597;29;20523;-77
2022/12/31 03:09:36;;;;;;;15.82;8.05;;;;;;;4.28;69.63;99391.22;4915381;29;20035;-76
2022/12/31 03:14:49;;;;;;;14.27;8.43;;;;;;;4.26;69.14;99392.91;4915796;29;20394;-76
2022/12/31 03:17:15;;;;;;;15.27;8.98;;;;;;;4.18;69.66;99377.38;4917242;29;20493;-78
2022/12/31 03:22:29;;;;;;;16.60;9.07;;;;;;;4.24;69.58;99384.31;4915269;29;20095;-76
2022/12/31 03:27:57;;;;;;;16.27;8.82;;;;;;;4.38;69.48;99400.75;4916951;29;20054;-78
2022/12/31 03:30:24;;;;;;;15.25;9.40;;;;;;;4.29;70.03;99380.94;4917290;29;20047;-75
2022/12/31 03:32:52;;;;;;;15.57;9.55;;;;;;;4.36;69.61;99392.16;4916442;29;20043;-77
2022/12/31 03:35:20;;;;;;;15.30;9.40;;;;;;;4.29;69.08;99388.66;4884765;29;20132;-76
2022/12/31 03:37:47;;;;;;;17.50;9.32;;;;;;;4.32;69.48;99405.84;4916556;29;20152;-75
2022/12/31 03:40:14;;;;;;;14.90;8.80;;;;;;;4.28;69.35;99401.53;4899587;29;20049;-74
2022/12/31 03:42:41;;;;;;;13.30;8.40;;;;;;;4.10;68.92;99376.44;4899502;29;20192;-77
2022/12/31 03:45:08;;;;;;;12.98;8.95;;;;;;;4.19;69.18;99410.88;4898877;29;20048;-74
2022/12/31 03:47:35;;;;;;;13.60;8.18;;;;;;;3.98;69.09;99385.72;4915832;29;20075;-76
2022/12/31 03:50:02;;;;;;;12.52;8.10;;;;;;;4.11;69.66;99402.19;4898653;29;20064;-75
2022/12/31 03:52:28;;;;;;;12.95;7.85;;;;;;;4.26;69.10;99414.38;4914787;29;20102;-76
2022/12/31 03:54:55;;;;;;;12.68;8.15;;;;;;;4.28;69.79;99412.69;4899199;29;20172;-78
2022/12/31 03:57:22;;;;;;;12.45;7.80;;;;;;;4.21;69.10;99411.75;4915212;29;20047;-77
2022/12/31 03:59:48;;;;;;;11.82;7.45;;;;;;;4.08;69.53;99394.47;4898580;29;20043;-75
2022/12/31 04:02:15;;;;;;;12.35;7.50;;;;;;;4.22;69.61;99410.03;4914806;29;20036;-76
2022/12/31 04:04:40;;;;;;;12.68;7.40;;;;;;;4.12;69.68;99372.16;4915878;29;20036;-76
2022/12/31 04:07:07;;;;;;;11.70;7.45;;;;;;;4.32;69.24;99403.25;4915480;29;20075;-77
2022/12/31 04:09:33;;;;;;;10.07;6.57;;;;;;;4.20;67.98;99389.41;4917332;29;20130;-75
2022/12/31 04:11:58;;;;;;;8.43;6.18;;;;;;;4.16;69.05;99402.25;4917289;29;20186;-76
2022/12/31 04:14:24;;;;;;;9.30;6.22;;;;;;;4.14;69.03;99415.09;4917045;29;20040;-76
2022/12/31 04:16:50;;;;;;;7.38;5.63;;;;;;;4.13;69.41;99405.66;4933802;29;20071;-76
2022/12/31 04:19:17;;;;;;;8.25;5.70;;;;;;;4.22;69.88;99418.63;4917528;29;20126;-76
2022/12/31 04:21:43;;;;;;;9.05;6.03;;;;;;;4.20;69.17;99427.19;4917612;29;20102;-75
2022/12/31 04:24:09;;;;;;;9.20;6.28;;;;;;;4.07;69.09;99410.75;4917423;29;20039;-76
2022/12/31 04:26:36;;;;;;;9.30;6.22;;;;;;;4.13;69.18;99427.97;4933883;29;20083;-76
2022/12/31 04:29:02;;;;;;;9.02;6.35;;;;;;;4.13;69.63;99431.41;4934313;29;20039;-77
2022/12/31 04:31:28;;;;;;;9.45;6.45;;;;;;;4.16;69.65;99434.00;4934265;29;20457;-76
2022/12/31 04:33:54;;;;;;;8.70;5.97;;;;;;;4.02;69.29;99413.25;4924319;29;20035;-76
2022/12/31 04:36:20;;;;;;;9.25;6.32;;;;;;;4.20;68.82;99440.06;4935377;29;20561;-76
2022/12/31 04:38:46;;;;;;;9.65;6.50;;;;;;;4.16;68.78;99444.31;4933036;29;20032;-77
2022/12/31 04:41:21;;;;;;;8.85;6.20;;;;;;;4.14;69.10;99427.97;4934597;29;20066;-77
2022/12/31 04:43:51;;;;;;;8.80;6.07;;;;;;;4.12;69.04;99424.53;4902149;29;20071;-76
2022/12/31 04:46:19;;;;;;;8.43;5.82;;;;;;;4.21;69.21;99441.78;4917371;29;20051;-75
2022/12/31 04:48:45;;;;;;;8.60;6.20;;;;;;;4.16;68.78;99434.00;4917113;29;20501;-75
2022/12/31 04:51:12;;;;;;;8.68;5.80;;;;;;;4.16;69.30;99428.88;4934086;29;20146;-77
2022/12/31 04:53:38;;;;;;;8.95;6.50;;;;;;;4.18;69.48;99434.91;4934507;29;20126;-76
2022/12/31 04:56:05;;;;;;;9.77;6.63;;;;;;;4.23;69.05;99434.94;4917380;29;20402;-76
2022/12/31 04:58:32;;;;;;;10.75;7.15;;;;;;;4.04;69.02;99415.88;4917100;29;20036;-76
2022/12/31 05:00:58;;;;;;;10.30;6.70;;;;;;;3.97;68.64;99414.94;4916861;29;20051;-76
2022/12/31 05:03:26;;;;;;;10.55;6.93;;;;;;;4.12;68.67;99463.16;4917028;29;20519;-77
2022/12/31 05:05:52;;;;;;;8.65;6.00;;;;;;;3.84;68.96;99431.06;4933950;29;20058;-77
2022/12/31 05:08:19;;;;;;;10.57;6.45;;;;;;;3.91;68.89;99461.19;4907817;29;20170;-77
2022/12/31 05:10:48;;;;;;;10.38;6.38;;;;;;;3.84;68.69;99473.13;4898284;29;20092;-76
2022/12/31 05:13:16;;;;;;;9.02;5.95;;;;;;;3.94;69.33;99478.38;4915064;29;20036;-75
2022/12/31 05:15:44;;;;;;;8.63;5.70;;;;;;;3.97;69.02;99488.72;4914702;29;20040;-75
2022/12/31 05:18:10;;;;;;;8.35;5.80;;;;;;;4.01;69.30;99493.06;4915072;29;20095;-76
2022/12/31 05:20:36;;;;;;;9.80;6.32;;;;;;;3.58;68.18;99450.47;4897769;29;20090;-76
2022/12/31 05:23:02;;;;;;;8.07;5.82;;;;;;;3.85;69.01;99503.19;4914268;29;20050;-75
2022/12/31 05:25:29;;;;;;;11.48;6.40;;;;;;;3.52;68.52;99465.81;4866659;29;20139;-75
2022/12/31 05:27:55;;;;;;;10.23;5.90;;;;;;;3.54;68.01;99510.44;4898166;29;20036;-76
2022/12/31 05:30:23;;;;;;;11.02;6.88;;;;;;;3.43;69.04;99514.53;4915715;29;20048;-76
2022/12/31 05:32:56;;;;;;;10.85;6.07;;;;;;;3.46;69.34;99514.59;4915361;29;20052;-76
2022/12/31 05:35:23;;;;;;;10.18;6.28;;;;;;;3.41;69.27;99516.25;4897724;29;20051;-76
2022/12/31 05:37:50;;;;;;;9.60;6.28;;;;;;;3.41;69.55;99519.69;4915868;29;20055;-76
2022/12/31 05:40:20;;;;;;;8.88;5.43;;;;;;;3.45;69.14;99533.44;4903192;29;20051;-76
2022/12/31 05:42:49;;;;;;;8.57;6.07;;;;;;;3.33;69.65;99497.25;4918610;29;20429;-75
2022/12/31 05:45:17;;;;;;;7.90;5.30;;;;;;;3.58;69.91;99535.38;4902453;29;20075;-76
2022/12/31 05:47:44;;;;;;;9.63;5.90;;;;;;;3.57;69.81;99536.22;4919823;29;20052;-75
2022/12/31 05:50:14;;;;;;;9.68;5.85;;;;;;;3.63;69.30;99555.19;4933836;29;20055;-77
2022/12/31 05:52:42;;;;;;;9.55;5.80;;;;;;;3.63;69.59;99555.19;4923344;29;20113;-73
2022/12/31 05:55:08;;;;;;;10.35;6.15;;;;;;;3.56;69.36;99549.06;4941057;29;20051;-75
2022/12/31 05:57:34;;;;;;;9.50;5.75;;;;;;;3.62;69.37;99559.44;4940837;29;20040;-74
2022/12/31 06:00:00;;;;;;;9.50;5.97;;;;;;;3.57;69.82;99559.38;4906465;29;20047;-77
2022/12/31 06:02:26;;;;;;;8.40;5.82;;;;;;;3.53;69.49;99559.31;4921801;29;20024;-76
2022/12/31 06:04:52;;;;;;;9.75;5.60;;;;;;;3.65;69.69;99581.78;4939051;29;20048;-76
2022/12/31 06:07:18;;;;;;;9.20;5.88;;;;;;;3.54;69.83;99577.34;4939626;29;20074;-76
2022/12/31 06:09:44;;;;;;;11.10;6.22;;;;;;;3.27;69.40;99544.31;4941438;29;20028;-76
2022/12/31 06:12:10;;;;;;;10.82;6.07;;;;;;;3.49;69.59;99589.25;4925096;29;20046;-75
2022/12/31 06:14:36;;;;;;;9.02;6.15;;;;;;;3.45;69.57;99590.94;4954963;29;20103;-76
2022/12/31 06:17:02;;;;;;;12.73;6.45;;;;;;;3.53;68.92;99596.19;4940939;29;20096;-76
2022/12/31 06:19:28;;;;;;;11.90;5.90;;;;;;;3.50;70.07;99583.28;4940144;29;20055;-75
2022/12/31 06:21:54;;;;;;;10.30;6.45;;;;;;;3.60;70.21;99597.16;4956657;29;20050;-77
2022/12/31 06:24:20;;;;;;;10.75;6.53;;;;;;;3.73;69.88;99616.22;4948176;29;20461;-76
2022/12/31 06:26:46;;;;;;;9.32;5.72;;;;;;;3.55;69.67;99593.63;4926395;29;20050;-76
2022/12/31 06:29:12;;;;;;;8.35;5.45;;;;;;;3.70;69.34;99616.19;4921149;29;20039;-76
2022/12/31 06:31:38;;;;;;;8.63;5.47;;;;;;;3.44;69.36;99575.44;4894918;29;20134;-76
2022/12/31 06:34:04;;;;;;;9.60;5.93;;;;;;;3.69;69.54;99617.91;4908031;29;20047;-78
2022/12/31 06:36:31;;;;;;;10.43;5.80;;;;;;;3.77;69.73;99631.75;4910755;29;20047;-75
2022/12/31 06:39:08;;;;;;;8.57;5.35;;;;;;;3.72;69.17;99633.41;4912847;29;20055;-78
2022/12/31 06:41:44;;;;;;;8.60;5.68;;;;;;;3.21;69.67;99568.22;4908234;29;20040;-76
2022/12/31 06:44:10;;;;;;;11.70;6.10;;;;;;;3.00;69.58;99518.16;4938976;29;20370;-77
2022/12/31 06:46:37;;;;;;;14.13;6.25;;;;;;;3.51;69.56;99612.47;4910529;29;20044;-76
2022/12/31 06:49:05;;;;;;;11.15;6.30;;;;;;;3.55;69.19;99615.09;4907651;29;20465;-76
2022/12/31 06:51:34;;;;;;;8.35;5.70;;;;;;;3.56;69.34;99616.84;4922738;29;20056;-77
2022/12/31 06:54:01;;;;;;;10.25;6.78;;;;;;;3.53;69.84;99606.47;4922291;29;20043;-75
2022/12/31 06:56:28;;;;;;;9.68;6.47;;;;;;;3.85;70.23;99662.78;4923188;29;20043;-76
2022/12/31 06:58:55;;;;;;;8.90;6.28;;;;;;;3.66;69.96;99627.25;4925874;29;20098;-77
2022/12/31 07:01:46;;;;;;;13.52;6.13;;;;;;;3.83;69.47;99663.56;4921988;29;20058;-76
2022/12/31 07:04:15;;;;;;;10.27;6.22;;;;;;;3.84;70.14;99663.63;4911584;29;20039;-77
2022/12/31 07:07:08;;;;;;;12.15;6.50;;;;;;;3.85;69.82;99652.47;4921379;29;20054;-76
2022/12/31 07:09:44;;;;;;;9.85;5.60;;;;;;;3.84;69.82;99670.47;4917489;29;20044;-78
2022/12/31 07:12:42;;;;;;;11.38;6.15;;;;;;;3.90;69.16;99680.88;4916129;29;20091;-77
2022/12/31 07:15:39;;;;;;;13.35;6.38;;;;;;;3.85;69.42;99679.91;4920098;29;20044;-76
2022/12/31 07:18:25;;;;;;;10.50;6.13;;;;;;;3.72;69.93;99687.44;4909449;29;20074;-78
2022/12/31 07:20:51;;;;;;;12.85;6.22;;;;;;;3.76;70.32;99684.06;4918229;29;20157;-77
2022/12/31 07:23:18;;;;;;;10.27;6.05;;;;;;;3.74;69.74;99687.47;4916960;29;20541;-77
2022/12/31 07:25:54;;;;;;;12.35;6.40;;;;;;;3.63;69.73;99674.41;4900487;29;20036;-77
2022/12/31 07:28:48;;;;;;;10.00;5.78;;;;;;;3.90;70.49;99707.47;4915590;29;20044;-77
2022/12/31 07:31:28;;;;;;;9.95;6.05;;;;;;;4.00;69.78;99705.06;4863239;29;20426;-77
2022/12/31 07:34:02;;;;;;;10.43;6.10;;;;;;;4.09;69.96;99717.22;4916522;29;20517;-77
2022/12/31 07:36:49;;;;;;;10.15;5.78;;;;;;;4.10;69.62;99716.38;4901205;29;20039;-77
2022/12/31 07:39:24;;;;;;;10.75;6.10;;;;;;;4.14;69.56;99715.59;4917325;29;20091;-76
2022/12/31 07:42:11;;;;;;;8.98;5.22;;;;;;;4.17;70.51;99721.63;4915226;29;20127;-77
2022/12/31 07:44:56;;;;;;;8.43;5.88;;;;;;;4.29;70.41;99725.28;4916574;29;20614;-78
2022/12/31 07:47:23;;;;;;;10.48;6.13;;;;;;;4.33;69.87;99724.44;4917385;29;20043;-77
2022/12/31 07:49:50;;;;;;;10.30;5.88;;;;;;;4.30;69.55;99702.09;4916363;29;20040;-79
2022/12/31 07:52:16;;;;;;;11.02;6.30;;;;;;;4.44;69.52;99722.91;4915540;29;20064;-77
2022/12/31 07:54:42;;;;;;;22.92;12.10;;;;;;;4.41;69.38;99720.28;4916222;29;20122;-77
2022/12/31 07:57:11;;;;;;;9.82;6.28;;;;;;;4.41;69.25;99722.88;4915869;29;20067;-78
2022/12/31 07:59:53;;;;;;;13.23;6.88;;;;;;;4.34;69.38;99716.75;4900224;29;20498;-79
2022/12/31 08:02:34;;;;;;;8.90;5.55;;;;;;;4.46;68.60;99740.97;4900940;29;20072;-77
2022/12/31 08:05:24;;;;;;;7.97;5.15;;;;;;;4.41;69.38;99740.91;4900571;29;20134;-77
2022/12/31 08:08:25;;;;;;;8.40;5.25;;;;;;;4.48;69.25;99754.75;4886363;29;20119;-77
2022/12/31 08:11:13;;;;;;;8.77;5.45;;;;;;;4.51;69.28;99763.41;4899630;29;20095;-77
2022/12/31 08:13:42;;;;;;;9.27;5.40;;;;;;;4.45;69.23;99747.84;4915295;29;20048;-78
2022/12/31 08:16:11;;;;;;;8.55;5.47;;;;;;;4.42;69.11;99741.75;4883982;29;20643;-78
2022/12/31 08:18:44;;;;;;;10.70;5.68;;;;;;;4.47;68.98;99745.28;4906952;29;20051;-79
2022/12/31 08:21:19;;;;;;;10.95;5.95;;;;;;;4.68;69.15;99767.94;4885539;29;20438;-76
2022/12/31 08:23:48;;;;;;;9.52;5.68;;;;;;;4.78;69.19;99769.78;4904691;29;20043;-77
2022/12/31 08:26:46;;;;;;;8.85;5.50;;;;;;;4.62;68.39;99739.47;4885364;29;20051;-78
2022/12/31 08:29:33;;;;;;;7.53;4.93;;;;;;;4.83;68.72;99756.97;4898163;29;20099;-77
2022/12/31 08:32:25;;;;;;;7.00;4.80;;;;;;;4.85;68.84;99751.81;4902756;29;20051;-78
2022/12/31 08:35:10;;;;;;;8.50;5.40;;;;;;;4.35;68.53;99674.69;4872704;29;20583;-77
2022/12/31 08:37:41;;;;;;;8.55;5.20;;;;;;;4.67;68.36;99714.66;4889455;29;20509;-79
2022/12/31 08:40:27;;;;;;;8.52;5.55;;;;;;;5.13;68.80;99772.00;4900856;29;20127;-78
2022/12/31 08:43:14;;;;;;;8.77;5.38;;;;;;;5.24;68.25;99782.44;4915828;29;20532;-77
2022/12/31 08:45:50;;;;;;;9.55;5.88;;;;;;;5.32;68.48;99782.53;4915549;29;20506;-76
2022/12/31 08:48:25;;;;;;;6.63;4.85;;;;;;;5.39;68.00;99789.50;4915502;29;20517;-77
2022/12/31 08:50:53;;;;;;;9.23;5.40;;;;;;;5.44;67.88;99786.97;4883263;29;20052;-77
2022/12/31 08:53:20;;;;;;;9.07;5.90;;;;;;;5.08;67.77;99727.22;4916618;29;20076;-77
2022/12/31 08:55:51;;;;;;;9.32;5.47;;;;;;;5.46;68.08;99780.13;4916456;29;20118;-78
2022/12/31 08:58:36;;;;;;;9.45;5.22;;;;;;;5.58;67.38;99794.88;4885558;29;20044;-77
2022/12/31 09:01:04;;;;;;;10.95;5.75;;;;;;;5.51;67.19;99788.78;4915039;29;20417;-76
2022/12/31 09:03:33;;;;;;;9.27;5.47;;;;;;;5.54;67.03;99777.63;4898111;29;20457;-76
2022/12/31 09:06:31;;;;;;;9.23;5.20;;;;;;;5.58;67.05;99789.72;4898498;29;20052;-77
2022/12/31 09:09:32;;;;;;;7.65;5.35;;;;;;;5.56;66.28;99800.00;4929954;29;20040;-77
2022/12/31 09:12:22;;;;;;;8.25;5.28;;;;;;;5.38;65.93;99808.44;4902351;29;20070;-77
2022/12/31 09:14:54;;;;;;;8.63;5.20;;;;;;;5.30;67.14;99802.28;4920297;29;20043;-76
2022/12/31 09:17:43;;;;;;;7.65;5.13;;;;;;;5.28;66.99;99806.56;4920676;29;20519;-77
2022/12/31 09:20:26;;;;;;;7.10;4.70;;;;;;;5.21;67.34;99790.16;4937758;29;20111;-77
2022/12/31 09:22:55;;;;;;;6.72;4.60;;;;;;;5.31;67.00;99796.28;4921014;29;20110;-77
2022/12/31 09:25:23;;;;;;;6.95;4.40;;;;;;;4.86;66.75;99727.78;4905784;29;20044;-78
2022/12/31 09:28:00;;;;;;;6.60;4.18;;;;;;;5.36;67.10;99814.41;4905379;29;20070;-77
2022/12/31 09:30:29;;;;;;;6.95;4.32;;;;;;;5.48;67.42;99811.09;4905792;29;20416;-78
2022/12/31 09:33:02;;;;;;;7.63;4.60;;;;;;;5.48;65.51;99816.25;4895867;29;20039;-78
2022/12/31 09:35:55;;;;;;;7.82;4.75;;;;;;;5.35;65.79;99812.66;4921116;29;20051;-77
2022/12/31 09:38:36;;;;;;;7.25;4.55;;;;;;;5.33;66.15;99820.41;4904696;29;20048;-76
2022/12/31 09:41:14;;;;;;;5.87;4.53;;;;;;;5.30;65.87;99822.09;4920862;29;20497;-77
2022/12/31 09:43:55;;;;;;;5.50;3.70;;;;;;;5.24;65.39;99830.59;4920917;29;20081;-77
2022/12/31 09:46:33;;;;;;;5.35;3.42;;;;;;;5.19;66.19;99838.28;4904931;29;20477;-77
2022/12/31 09:49:15;;;;;;;5.35;3.20;;;;;;;5.13;66.02;99849.38;4904597;29;20437;-76
2022/12/31 09:51:59;;;;;;;5.37;3.43;;;;;;;5.03;65.97;99842.34;4904698;29;20440;-76
2022/12/31 09:54:32;;;;;;;5.57;3.83;;;;;;;5.12;66.41;99847.66;4939818;29;20047;-76
2022/12/31 09:57:49;;;;;;;5.40;3.60;;;;;;;5.15;66.01;99853.69;4906816;29;20425;-79
2022/12/31 10:00:43;;;;;;;5.95;3.30;;;;;;;5.12;65.86;99851.91;4896253;29;20046;-76
2022/12/31 10:03:30;;;;;;;4.05;2.85;;;;;;;5.19;66.60;99848.59;4904581;29;20055;-76
2022/12/31 10:06:10;;;;;;;5.47;3.08;;;;;;;5.28;65.88;99842.69;4937426;29;20039;-77
2022/12/31 10:09:00;;;;;;;6.05;3.67;;;;;;;5.25;66.12;99858.13;4908950;29;20094;-76
2022/12/31 10:11:44;;;;;;;5.05;3.53;;;;;;;5.19;65.93;99855.44;4887351;29;20047;-77
2022/12/31 10:14:49;;;;;;;6.38;4.25;;;;;;;5.18;66.35;99858.91;4919028;29;20192;-78
2022/12/31 10:17:29;;;;;;;6.97;4.30;;;;;;;5.24;65.57;99864.13;4918486;29;20051;-78
2022/12/31 10:20:37;;;;;;;7.93;4.93;;;;;;;5.33;65.49;99868.53;4902743;29;20051;-77
2022/12/31 10:23:21;;;;;;;6.15;4.25;;;;;;;5.32;66.04;99879.72;4888206;29;20060;-78
2022/12/31 10:26:12;;;;;;;6.57;4.47;;;;;;;5.26;65.79;99895.97;4886703;29;20052;-77
2022/12/31 10:28:57;;;;;;;6.32;4.00;;;;;;;5.23;65.26;99891.66;4921896;29;20127;-77
2022/12/31 10:31:35;;;;;;;6.05;4.10;;;;;;;5.25;65.83;99899.41;4903006;29;20075;-76
2022/12/31 10:34:15;;;;;;;6.43;3.83;;;;;;;4.99;65.58;99863.78;4917753;29;20048;-77
2022/12/31 10:37:02;;;;;;;8.30;4.25;;;;;;;5.02;65.64;99883.59;4901018;29;20043;-77
2022/12/31 10:39:31;;;;;;;6.60;3.80;;;;;;;5.15;65.92;99897.56;4901277;29;20044;-77
2022/12/31 10:42:12;;;;;;;6.28;4.32;;;;;;;5.11;65.92;99897.50;4918120;29;20050;-77
2022/12/31 10:45:13;;;;;;;6.57;4.53;;;;;;;5.11;66.23;99900.09;4917965;29;20044;-76
2022/12/31 10:47:57;;;;;;;7.07;4.50;;;;;;;5.12;65.52;99894.09;4906359;29;20040;-79
2022/12/31 10:50:45;;;;;;;10.70;4.60;;;;;;;5.23;65.92;99896.81;4904412;29;20148;-78
2022/12/31 10:53:44;;;;;;;11.57;4.95;;;;;;;5.23;64.91;99901.09;4900491;29;20046;-77
2022/12/31 10:56:41;;;;;;;7.75;4.93;;;;;;;5.33;66.17;99909.84;4920139;29;20052;-78
2022/12/31 10:59:32;;;;;;;6.78;5.03;;;;;;;5.02;64.85;99866.41;4928367;29;20071;-76
2022/12/31 11:02:39;;;;;;;11.05;5.22;;;;;;;5.21;65.45;99907.94;4880917;29;20040;-77
2022/12/31 11:05:42;;;;;;;9.27;5.05;;;;;;;5.32;65.66;99901.25;4914751;29;20052;-76
2022/12/31 11:08:20;;;;;;;9.40;5.05;;;;;;;5.36;65.88;99903.03;4942322;29;20039;-78
2022/12/31 11:11:18;;;;;;;8.27;5.05;;;;;;;5.37;65.02;99894.44;4936236;29;20048;-78
2022/12/31 11:14:06;;;;;;;8.95;4.53;;;;;;;5.33;64.82;99915.88;4933187;29;20043;-79
2022/12/31 11:17:08;;;;;;;11.65;5.43;;;;;;;5.26;65.50;99932.09;4936431;29;20127;-77
2022/12/31 11:20:00;;;;;;;12.07;4.63;;;;;;;5.22;64.98;99935.47;4922441;29;20063;-75
2022/12/31 11:22:47;;;;;;;7.38;4.72;;;;;;;5.20;65.33;99932.00;4927942;29;20070;-78
2022/12/31 11:25:14;;;;;;;8.40;5.07;;;;;;;5.13;65.19;99938.78;4938767;29;20083;-76
2022/12/31 11:27:57;;;;;;;8.82;5.30;;;;;;;5.16;65.69;99967.22;4939275;29;20047;-78
2022/12/31 11:30:50;;;;;;;;;;;;;;;;;;;;;
2022/12/31 11:33:47;;;;;;;8.75;5.10;;;;;;;5.07;65.67;99955.03;4922413;29;20051;-76
2022/12/31 11:36:18;;;;;;;9.27;5.60;;;;;;;5.06;65.16;99968.78;4906572;29;20461;-76
2022/12/31 11:38:50;;;;;;;9.35;5.45;;;;;;;4.63;65.94;99899.34;4904946;29;20137;-78
2022/12/31 11:41:32;;;;;;;10.07;5.90;;;;;;;4.96;65.58;99959.19;4919726;29;20130;-77
2022/12/31 11:44:27;;;;;;;9.85;5.20;;;;;;;4.96;65.90;99948.88;4920126;29;20063;-79
2022/12/31 11:47:07;;;;;;;10.23;5.77;;;;;;;5.11;66.20;99985.22;4903778;29;20051;-78
2022/12/31 11:50:14;;;;;;;9.18;5.35;;;;;;;4.97;65.74;99971.19;4919524;29;20043;-78
2022/12/31 11:53:06;;;;;;;10.25;5.95;;;;;;;4.97;65.83;99991.84;4920937;29;20043;-77
2022/12/31 11:55:55;;;;;;;12.90;5.88;;;;;;;4.87;66.04;99974.47;4929520;29;20097;-76
2022/12/31 11:58:27;;;;;;;11.20;5.30;;;;;;;4.93;66.03;99984.91;4935269;29;20122;-77
2022/12/31 12:01:10;;;;;;;11.05;5.80;;;;;;;5.01;65.47;100009.09;4937956;29;20103;-76
2022/12/31 12:03:42;;;;;;;11.27;5.47;;;;;;;5.01;65.54;100014.25;4923159;29;20050;-79
2022/12/31 12:06:17;;;;;;;9.38;5.22;;;;;;;4.88;66.30;99996.84;4934235;29;20039;-76
2022/12/31 12:08:45;;;;;;;9.35;5.70;;;;;;;4.87;65.44;100000.28;4922649;29;20091;-78
2022/12/31 12:11:26;;;;;;;11.05;6.00;;;;;;;4.93;65.75;100010.69;4899034;29;20202;-76
2022/12/31 12:13:54;;;;;;;7.80;5.07;;;;;;;4.92;65.82;100011.53;4916426;29;20517;-77
2022/12/31 12:16:21;;;;;;;9.55;4.90;;;;;;;4.92;65.88;100011.53;4883643;29;20457;-76
2022/12/31 12:18:59;;;;;;;7.72;4.65;;;;;;;4.96;65.76;100021.06;4885137;29;20043;-77
2022/12/31 12:21:26;;;;;;;9.13;5.07;;;;;;;4.77;65.43;99992.34;4903966;29;20040;-77
2022/12/31 12:24:19;;;;;;;10.05;5.32;;;;;;;4.89;65.79;100019.22;4916933;29;20044;-75
2022/12/31 12:26:51;;;;;;;10.00;5.00;;;;;;;4.88;66.47;100020.06;4890984;29;20052;-78
2022/12/31 12:29:38;;;;;;;9.18;4.47;;;;;;;4.81;65.81;100031.97;4871174;29;20126;-78
2022/12/31 12:32:17;;;;;;;6.75;4.32;;;;;;;4.73;65.90;100023.22;4899228;29;20104;-76